Time;durP1;ratioP1;P1;durP2;ratioP2;P2;SDS_P1;SDS_P2;PMS_P1;PMS_P2;Temp;Humidity;BMP_temperature;BMP_pressure;BME280_temperature;BME280_humidity;BME280_pressure;Samples;Min_cycle;Max_cycle;Signal;HPM_P1;HPM_P2
2022/06/06 00:00:52;;;;;;;5.00;2.40;;;;;;;14.06;100.00;96124.53;5095673;28;20032;-60
2022/06/06 00:03:19;;;;;;;5.38;2.53;;;;;;;14.15;100.00;96118.31;5090007;28;20020;-60
2022/06/06 00:05:47;;;;;;;2.97;2.50;;;;;;;14.16;100.00;96119.97;5100742;28;20027;-60
2022/06/06 00:08:14;;;;;;;5.18;2.63;;;;;;;14.13;100.00;96101.75;5100307;28;20138;-60
2022/06/06 00:10:41;;;;;;;4.60;2.45;;;;;;;14.09;100.00;96103.88;5097994;28;20042;-60
2022/06/06 00:13:08;;;;;;;9.35;2.60;;;;;;;14.03;100.00;96096.56;5078009;28;20049;-60
2022/06/06 00:15:34;;;;;;;3.10;2.72;;;;;;;14.01;100.00;96101.16;5099876;28;20028;-60
2022/06/06 00:18:00;;;;;;;2.50;2.40;;;;;;;14.03;100.00;96096.56;5094127;28;20043;-61
2022/06/06 00:20:25;;;;;;;2.88;2.67;;;;;;;14.03;100.00;96091.25;5094057;28;20107;-60
2022/06/06 00:22:51;;;;;;;2.38;2.22;;;;;;;14.01;100.00;96088.75;5098129;28;20550;-61
2022/06/06 00:25:16;;;;;;;3.97;2.55;;;;;;;13.97;100.00;96083.94;5092044;28;20478;-60
2022/06/06 00:27:42;;;;;;;4.13;2.42;;;;;;;13.95;100.00;96076.13;5093603;28;20019;-61
2022/06/06 00:30:08;;;;;;;3.35;2.50;;;;;;;13.93;100.00;96066.72;5095740;28;20095;-61
2022/06/06 00:35:20;;;;;;;2.92;2.70;;;;;;;13.97;100.00;96065.41;5098178;28;20034;-60
2022/06/06 00:37:47;;;;;;;3.33;2.25;;;;;;;13.99;100.00;96074.03;5099094;28;20785;-60
2022/06/06 00:40:14;;;;;;;3.28;2.53;;;;;;;13.97;100.00;96054.81;5097516;28;20546;-61
2022/06/06 00:42:42;;;;;;;3.05;2.78;;;;;;;13.92;100.00;96049.97;5101038;28;20019;-60
2022/06/06 00:45:34;;;;;;;4.38;3.22;;;;;;;13.90;100.00;96046.66;5094853;28;20024;-60
2022/06/06 00:48:08;;;;;;;3.38;3.08;;;;;;;13.89;100.00;96043.16;5091489;28;20414;-60
2022/06/06 00:50:36;;;;;;;5.05;3.55;;;;;;;13.90;100.00;96044.00;5098878;28;20023;-60
2022/06/06 00:53:02;;;;;;;2.50;2.40;;;;;;;13.90;100.00;96044.00;5094432;28;20469;-60
2022/06/06 00:55:32;;;;;;;10.23;3.10;;;;;;;13.89;100.00;96047.66;5099797;28;20130;-60
2022/06/06 00:58:05;;;;;;;3.17;2.97;;;;;;;13.88;100.00;96040.69;5097159;28;20577;-61
2022/06/06 01:00:31;;;;;;;5.20;4.70;;;;;;;13.85;100.00;96041.00;5097727;28;20054;-60
2022/06/06 01:03:02;;;;;;;4.70;4.38;;;;;;;13.83;100.00;96042.97;5094796;28;20034;-61
2022/06/06 01:05:28;;;;;;;3.65;3.35;;;;;;;13.83;100.00;96043.78;5092482;28;20035;-60
2022/06/06 01:07:54;;;;;;;5.30;3.20;;;;;;;13.84;100.00;96049.94;5091947;28;20457;-60
2022/06/06 01:10:20;;;;;;;6.00;3.30;;;;;;;13.80;100.00;96049.41;5082104;28;20099;-60
2022/06/06 01:12:49;;;;;;;3.60;3.33;;;;;;;13.79;100.00;96047.75;5094833;28;20131;-61
2022/06/06 01:15:17;;;;;;;4.05;3.10;;;;;;;13.73;100.00;96051.81;5094016;28;20125;-60
2022/06/06 01:17:58;;;;;;;3.42;3.10;;;;;;;13.66;100.00;96049.94;5088532;28;20024;-60
2022/06/06 01:20:53;;;;;;;3.55;3.03;;;;;;;13.61;100.00;96059.16;5093395;28;20034;-60
2022/06/06 01:23:37;;;;;;;8.95;3.03;;;;;;;13.60;100.00;96054.84;5096982;28;20402;-60
2022/06/06 01:26:24;;;;;;;3.25;2.95;;;;;;;13.64;100.00;96060.69;5091601;28;20032;-60
2022/06/06 01:29:14;;;;;;;7.45;3.50;;;;;;;13.61;100.00;96058.34;5097054;28;20032;-60
2022/06/06 01:31:50;;;;;;;3.38;3.10;;;;;;;13.61;100.00;96053.06;5094210;28;20031;-60
2022/06/06 01:34:28;;;;;;;4.85;3.40;;;;;;;13.58;100.00;96046.25;5094833;28;20031;-60
2022/06/06 01:36:54;;;;;;;8.98;3.30;;;;;;;13.53;100.00;96045.03;5099861;28;20478;-59
2022/06/06 01:39:23;;;;;;;3.55;2.80;;;;;;;13.54;100.00;96055.47;5093565;28;20073;-60
2022/06/06 01:41:51;;;;;;;3.08;2.88;;;;;;;13.52;100.00;96052.16;5095250;28;20103;-60
2022/06/06 01:44:27;;;;;;;7.10;2.88;;;;;;;13.54;100.00;96044.03;5097391;28;20024;-59
2022/06/06 01:46:55;;;;;;;3.50;3.00;;;;;;;13.46;100.00;96035.06;5105769;28;20027;-59
2022/06/06 01:49:23;;;;;;;5.65;3.15;;;;;;;13.40;100.00;96033.00;5103988;28;20178;-60
2022/06/06 01:52:04;;;;;;;4.05;3.20;;;;;;;13.39;100.00;96027.84;5106604;28;20024;-60
2022/06/06 01:54:30;;;;;;;3.83;3.20;;;;;;;13.38;100.00;96026.19;5097241;28;20028;-59
2022/06/06 01:56:56;;;;;;;6.75;3.38;;;;;;;13.34;100.00;96012.44;5099085;28;20034;-60
2022/06/06 01:59:22;;;;;;;3.15;2.95;;;;;;;13.32;100.00;96019.69;5103397;28;20111;-60
2022/06/06 02:01:47;;;;;;;4.80;3.60;;;;;;;13.31;100.00;96007.44;5106298;28;20530;-60
2022/06/06 02:04:12;;;;;;;3.40;3.15;;;;;;;13.34;100.00;96015.06;5100815;28;20028;-60
2022/06/06 02:06:39;;;;;;;5.13;3.22;;;;;;;13.33;100.00;96013.41;5106744;28;20453;-60
2022/06/06 02:09:05;;;;;;;3.40;3.20;;;;;;;13.31;100.00;96005.66;5099800;28;20071;-60
2022/06/06 02:11:30;;;;;;;7.22;3.35;;;;;;;13.31;100.00;96005.66;5099461;28;20111;-60
2022/06/06 02:13:55;;;;;;;8.48;3.58;;;;;;;13.32;100.00;95998.53;5100355;28;20019;-60
2022/06/06 02:16:21;;;;;;;3.40;2.97;;;;;;;13.30;100.00;96004.00;5098297;28;20106;-60
2022/06/06 02:18:46;;;;;;;4.28;3.22;;;;;;;13.26;100.00;95999.16;5101292;28;20020;-60
2022/06/06 02:21:12;;;;;;;3.38;3.03;;;;;;;13.24;100.00;96001.09;5097683;28;20115;-60
2022/06/06 02:23:37;;;;;;;3.30;3.00;;;;;;;13.23;100.00;96002.91;5099692;28;20028;-60
2022/06/06 02:26:03;;;;;;;4.82;3.13;;;;;;;13.19;100.00;96001.56;5105200;28;20108;-60
2022/06/06 02:28:28;;;;;;;4.30;3.13;;;;;;;13.20;100.00;96005.84;5100091;28;20023;-60
2022/06/06 02:30:53;;;;;;;5.85;3.05;;;;;;;13.19;100.00;96001.56;5103896;28;20024;-59
2022/06/06 02:33:19;;;;;;;7.43;3.17;;;;;;;13.17;100.00;95995.59;5094690;28;20398;-60
2022/06/06 02:35:45;;;;;;;5.43;4.78;;;;;;;13.20;100.00;95997.13;5103182;28;20114;-60
2022/06/06 02:38:12;;;;;;;3.40;3.10;;;;;;;13.20;100.00;96005.84;5100903;28;20042;-60
2022/06/06 02:40:38;;;;;;;4.88;3.40;;;;;;;13.17;100.00;96003.53;5096995;28;20035;-60
2022/06/06 02:43:03;;;;;;;9.60;3.30;;;;;;;13.15;100.00;96003.69;5093337;28;20028;-60
2022/06/06 02:45:29;;;;;;;3.33;3.00;;;;;;;13.13;100.00;96005.63;5102852;28;20371;-59
2022/06/06 02:47:57;;;;;;;4.30;3.00;;;;;;;13.14;100.00;96011.75;5097737;28;20628;-60
2022/06/06 02:50:26;;;;;;;3.40;3.20;;;;;;;13.12;100.00;96011.06;5101727;28;20044;-60
2022/06/06 02:52:52;;;;;;;3.92;3.63;;;;;;;13.09;100.00;96012.19;5097621;28;20055;-60
2022/06/06 02:55:18;;;;;;;4.40;3.70;;;;;;;13.09;100.00;96019.31;5095740;28;20079;-60
2022/06/06 02:57:49;;;;;;;4.78;4.38;;;;;;;13.06;100.00;96022.25;5103482;28;20051;-60
2022/06/06 03:00:19;;;;;;;5.75;3.75;;;;;;;13.07;100.00;96023.91;5105075;28;20015;-60
2022/06/06 03:02:45;;;;;;;5.38;4.78;;;;;;;13.10;100.00;96021.78;5099087;28;20023;-60
2022/06/06 03:05:11;;;;;;;4.72;4.40;;;;;;;13.15;100.00;96024.84;5096907;28;20482;-60
2022/06/06 03:07:58;;;;;;;9.07;4.38;;;;;;;13.20;100.00;96031.47;5102904;28;20035;-60
2022/06/06 03:10:48;;;;;;;4.47;3.65;;;;;;;13.20;100.00;96036.75;5097630;28;20082;-60
2022/06/06 03:13:50;;;;;;;4.90;3.58;;;;;;;13.20;100.00;96031.47;5097193;28;20053;-60
2022/06/06 03:22:51;;;;;;;9.30;7.38;;;;;;;13.39;100.00;96041.06;5101826;28;20089;-60
2022/06/06 03:25:32;;;;;;;8.02;7.35;;;;;;;13.46;100.00;96037.72;5098262;28;20031;-60
2022/06/06 03:28:03;;;;;;;9.15;8.20;;;;;;;13.53;100.00;96043.22;5105174;28;20023;-60
2022/06/06 03:31:00;;;;;;;8.20;6.90;;;;;;;13.58;100.00;96045.41;5097605;28;20023;-60
2022/06/06 03:34:10;;;;;;;7.25;6.65;;;;;;;13.66;100.00;96048.13;5097906;28;20039;-60
2022/06/06 03:36:42;;;;;;;11.10;6.47;;;;;;;13.68;100.00;96045.31;5083680;28;20552;-60
2022/06/06 03:39:21;;;;;;;7.78;6.50;;;;;;;13.70;100.00;96054.78;5100534;28;20107;-60
2022/06/06 03:41:56;;;;;;;8.25;6.28;;;;;;;13.70;100.00;96046.00;5096654;28;20482;-60
2022/06/06 03:44:28;;;;;;;7.95;7.15;;;;;;;13.69;100.00;96047.81;5098904;28;20492;-60
2022/06/06 03:46:53;;;;;;;7.43;6.35;;;;;;;13.70;100.00;96054.78;5094471;28;20020;-60
2022/06/06 03:49:18;;;;;;;6.18;5.68;;;;;;;13.76;100.00;96056.00;5099250;28;20041;-60
2022/06/06 03:51:59;;;;;;;7.40;6.68;;;;;;;13.77;100.00;96056.81;5101529;28;20470;-60
2022/06/06 03:54:59;;;;;;;7.68;6.65;;;;;;;13.82;100.00;96065.13;5091772;28;20368;-60
2022/06/06 03:57:26;;;;;;;8.38;7.57;;;;;;;13.84;100.00;96068.47;5103121;28;20035;-60
2022/06/06 03:59:58;;;;;;;8.00;7.38;;;;;;;13.82;100.00;96067.78;5095722;28;20065;-60
2022/06/06 04:02:35;;;;;;;10.07;6.97;;;;;;;13.80;100.00;96067.91;5101632;28;20103;-60
2022/06/06 04:05:06;;;;;;;8.10;7.38;;;;;;;13.84;100.00;96069.28;5104914;28;20026;-60
2022/06/06 04:07:31;;;;;;;9.07;8.25;;;;;;;13.87;100.00;96063.66;5098624;28;20051;-61
2022/06/06 04:09:57;;;;;;;8.75;7.97;;;;;;;13.86;100.00;96069.13;5099531;28;20058;-60
2022/06/06 04:12:39;;;;;;;7.55;6.78;;;;;;;13.85;100.00;96072.75;5099033;28;20784;-60
2022/06/06 04:15:29;;;;;;;8.02;5.75;;;;;;;13.88;100.00;96075.09;5093321;28;20031;-60
2022/06/06 04:18:16;;;;;;;5.72;5.32;;;;;;;13.90;100.00;96071.28;5102548;28;20156;-60
2022/06/06 04:20:50;;;;;;;8.20;5.15;;;;;;;13.92;100.00;96070.31;5093972;28;20040;-60
2022/06/06 04:23:28;;;;;;;5.82;5.35;;;;;;;13.90;100.00;96065.19;5100128;28;20024;-60
2022/06/06 04:26:11;;;;;;;4.53;4.13;;;;;;;13.96;100.00;96069.03;5092205;28;20035;-60
2022/06/06 04:28:50;;;;;;;8.02;3.97;;;;;;;13.97;100.00;96057.47;5100244;28;20100;-60
2022/06/06 04:31:27;;;;;;;3.97;3.67;;;;;;;13.99;100.00;96063.44;5097534;28;20023;-60
2022/06/06 04:34:10;;;;;;;4.55;3.33;;;;;;;13.97;100.00;96060.94;5101444;28;20024;-60
2022/06/06 04:36:54;;;;;;;4.82;3.83;;;;;;;14.00;100.00;96065.91;5100072;28;20494;-59
2022/06/06 04:39:32;;;;;;;3.95;3.65;;;;;;;14.04;100.00;96063.81;5095060;28;20031;-60
2022/06/06 04:42:08;;;;;;;8.82;4.78;;;;;;;14.09;100.00;96063.34;5099815;28;20034;-60
2022/06/06 04:44:52;;;;;;;5.65;5.25;;;;;;;14.15;100.00;96065.38;5100610;28;20028;-60
2022/06/06 04:47:48;;;;;;;6.10;4.60;;;;;;;14.14;100.00;96056.56;5096506;28;20495;-60
2022/06/06 04:50:19;;;;;;;5.57;3.65;;;;;;;14.12;100.00;96050.59;5079291;28;20025;-60
2022/06/06 04:52:53;;;;;;;7.13;4.53;;;;;;;14.13;100.00;96043.50;5101622;28;20085;-60
2022/06/06 04:55:19;;;;;;;4.70;4.40;;;;;;;14.13;100.00;96048.81;5100349;28;20047;-60
2022/06/06 04:57:50;;;;;;;4.75;4.28;;;;;;;14.12;100.00;96049.78;5098464;28;20595;-60
2022/06/06 05:00:17;;;;;;;6.55;3.33;;;;;;;14.12;100.00;96037.38;5095866;28;20024;-60
2022/06/06 05:02:42;;;;;;;4.53;2.90;;;;;;;14.17;100.00;96047.50;5100651;28;20568;-60
2022/06/06 05:05:09;;;;;;;5.32;3.42;;;;;;;14.23;100.00;96049.53;5094564;28;20055;-60
2022/06/06 05:08:12;;;;;;;3.67;3.40;;;;;;;14.27;100.00;96034.16;5098166;28;20055;-60
2022/06/06 05:11:01;;;;;;;5.85;4.00;;;;;;;14.35;100.00;96038.69;5089064;28;20088;-60
2022/06/06 05:13:33;;;;;;;5.15;4.72;;;;;;;14.47;100.00;96040.91;5096623;28;20399;-60
2022/06/06 05:16:11;;;;;;;7.15;6.47;;;;;;;14.63;100.00;96043.78;5100409;28;20028;-60
2022/06/06 05:18:49;;;;;;;6.65;6.00;;;;;;;14.73;100.00;96055.13;5099645;28;20153;-60
2022/06/06 05:21:17;;;;;;;6.50;5.78;;;;;;;14.78;100.00;96052.81;5100108;28;20070;-60
2022/06/06 05:24:20;;;;;;;4.88;4.57;;;;;;;14.88;100.00;96056.16;5100936;28;20020;-61
2022/06/06 05:27:04;;;;;;;11.10;6.15;;;;;;;14.95;100.00;96050.25;5102974;28;20032;-60
2022/06/06 05:29:29;;;;;;;22.55;20.42;;;;;;;14.98;100.00;96052.56;5095584;28;21595;-60
2022/06/06 05:32:13;;;;;;;23.45;21.55;;;;;;;15.07;100.00;96051.59;5102179;28;20024;-60
2022/06/06 05:34:47;;;;;;;44.65;40.92;;;;;;;15.19;100.00;96057.44;5100448;28;20065;-60
2022/06/06 05:37:32;;;;;;;62.38;56.67;;;;;;;15.31;100.00;96053.50;5101514;28;20031;-61
2022/06/06 05:40:06;;;;;;;88.90;81.50;;;;;;;15.38;100.00;96051.03;5103539;28;20038;-61
2022/06/06 05:42:34;;;;;;;42.60;39.03;;;;;;;15.49;100.00;96046.38;5098345;28;20032;-61
2022/06/06 05:45:10;;;;;;;21.95;20.08;;;;;;;15.60;100.00;96048.72;5095940;28;20027;-60
2022/06/06 05:47:51;;;;;;;47.65;43.38;;;;;;;15.82;100.00;96060.50;5096487;28;20024;-60
2022/06/06 05:50:28;;;;;;;34.88;31.63;;;;;;;16.12;100.00;96062.69;5103276;28;20027;-60
2022/06/06 05:53:08;;;;;;;26.60;24.20;;;;;;;16.33;100.00;96047.03;5105827;28;20049;-60
2022/06/06 05:55:46;;;;;;;25.98;23.70;;;;;;;16.41;100.00;96050.66;5103944;28;20877;-61
2022/06/06 05:58:43;;;;;;;28.88;26.30;;;;;;;16.30;100.00;96051.84;5100385;28;20020;-60
2022/06/06 06:01:53;;;;;;;29.38;26.95;;;;;;;16.26;100.00;96058.50;5105673;28;20550;-61
2022/06/06 06:04:37;;;;;;;23.63;21.52;;;;;;;16.24;100.00;96058.66;5026149;28;20389;-60
2022/06/06 06:07:16;;;;;;;36.03;32.65;;;;;;;16.22;100.00;96059.84;5034466;28;20025;-60
2022/06/06 06:09:41;;;;;;;28.83;26.27;;;;;;;16.20;100.00;96067.16;5076358;28;20079;-60
2022/06/06 06:12:11;;;;;;;39.35;35.83;;;;;;;16.17;100.00;96070.97;5100096;27;20120;-61
2022/06/06 06:15:11;;;;;;;24.35;22.35;;;;;;;16.27;100.00;96062.81;5102156;28;20032;-60
2022/06/06 06:17:39;;;;;;;16.58;14.93;;;;;;;16.41;100.00;96071.91;5104911;28;20031;-61
2022/06/06 06:20:08;;;;;;;19.48;17.58;;;;;;;16.37;100.00;96076.75;5097682;28;20058;-60
2022/06/06 06:22:45;;;;;;;12.93;9.77;;;;;;;16.38;100.00;96082.91;5081031;28;20050;-61
2022/06/06 06:25:14;;;;;;;11.85;10.75;;;;;;;16.41;100.00;96074.59;5095695;28;20052;-60
2022/06/06 06:27:41;;;;;;;13.15;11.93;;;;;;;16.45;100.00;96086.53;5102957;28;20031;-60
2022/06/06 06:30:08;;;;;;;8.68;7.47;;;;;;;16.42;100.00;96084.22;5097340;28;20031;-61
2022/06/06 06:33:02;;;;;;;7.45;6.93;;;;;;;16.42;100.00;96081.56;5103328;28;20028;-60
2022/06/06 06:35:51;;;;;;;7.70;7.07;;;;;;;16.46;100.00;96077.56;5095625;28;20139;-61
2022/06/06 06:38:23;;;;;;;9.63;7.93;;;;;;;16.52;100.00;96073.41;5102464;28;20510;-61
2022/06/06 06:41:01;;;;;;;8.48;6.05;;;;;;;16.58;100.00;96083.38;5098675;28;20426;-61
2022/06/06 06:43:42;;;;;;;6.85;6.35;;;;;;;16.53;100.00;96080.38;5085409;28;20032;-61
2022/06/06 06:46:14;;;;;;;6.03;5.35;;;;;;;16.50;99.55;96080.72;5094955;28;20058;-60
2022/06/06 06:48:48;;;;;;;6.25;5.68;;;;;;;16.53;100.00;96081.22;5097095;28;20020;-61
2022/06/06 06:51:38;;;;;;;5.65;5.25;;;;;;;16.47;98.45;96082.72;5095318;28;20030;-60
2022/06/06 06:54:31;;;;;;;8.60;5.38;;;;;;;16.47;98.83;96087.22;5100850;28;20027;-61
2022/06/06 06:57:02;;;;;;;6.10;5.50;;;;;;;16.57;99.56;96087.84;5099245;28;20035;-61
2022/06/06 06:59:40;;;;;;;5.25;4.85;;;;;;;16.71;100.00;96085.50;5104091;28;20111;-60
2022/06/06 07:08:35;;;;;;;5.45;5.05;;;;;;;16.94;100.00;96090.06;5094806;28;21849;-60
2022/06/06 07:11:25;;;;;;;6.63;5.45;;;;;;;17.08;99.28;96083.22;5093880;28;20406;-61
2022/06/06 07:14:24;;;;;;;5.05;4.60;;;;;;;17.27;98.61;96080.13;5095020;28;20031;-60
2022/06/06 07:16:56;;;;;;;10.93;4.05;;;;;;;17.83;94.66;96080.94;5099811;28;20032;-60
2022/06/06 07:19:32;;;;;;;6.25;4.05;;;;;;;18.05;92.60;96079.28;5094497;28;20102;-60
2022/06/06 07:22:02;;;;;;;5.00;3.97;;;;;;;18.41;91.36;96077.78;5093424;28;20020;-60
2022/06/06 07:24:28;;;;;;;3.95;3.47;;;;;;;19.09;88.73;96076.91;5090630;28;20024;-59
2022/06/06 07:26:56;;;;;;;4.25;3.20;;;;;;;19.63;84.49;96082.84;5092646;28;20031;-60
2022/06/06 07:29:21;;;;;;;4.32;3.47;;;;;;;20.02;81.79;96081.63;5095290;28;20069;-60
2022/06/06 07:31:47;;;;;;;3.08;2.80;;;;;;;20.73;78.82;96083.38;5094581;28;20024;-60
2022/06/06 07:34:23;;;;;;;5.28;3.13;;;;;;;21.45;73.69;96079.63;5093315;28;20051;-60
2022/06/06 07:37:28;;;;;;;4.15;3.13;;;;;;;22.09;72.33;96065.97;5103334;28;20039;-61
2022/06/06 07:40:24;;;;;;;3.08;2.75;;;;;;;22.24;72.61;96060.38;5096824;28;20094;-60
2022/06/06 07:43:15;;;;;;;3.97;2.50;;;;;;;22.69;70.16;96054.38;5101015;28;20578;-60
2022/06/06 07:45:47;;;;;;;5.80;2.63;;;;;;;23.19;67.05;96061.84;5097137;28;20081;-61
2022/06/06 07:48:42;;;;;;;2.25;2.00;;;;;;;23.52;65.73;96043.94;5093824;28;20035;-61
2022/06/06 07:51:36;;;;;;;2.27;2.17;;;;;;;23.33;63.53;96046.56;5047773;28;20047;-61
2022/06/06 07:54:34;;;;;;;2.30;2.08;;;;;;;23.41;63.17;96042.78;5099134;28;21310;-61
2022/06/06 07:56:59;;;;;;;2.80;1.88;;;;;;;23.36;64.17;96045.28;5097180;28;20039;-60
2022/06/06 07:59:37;;;;;;;4.82;2.33;;;;;;;23.29;63.99;96050.69;5099129;28;20028;-61
2022/06/06 08:02:20;;;;;;;2.50;2.30;;;;;;;23.60;62.32;96055.28;5096522;28;20028;-61
2022/06/06 08:04:59;;;;;;;3.00;2.70;;;;;;;23.59;62.80;96048.25;5102382;28;20561;-61
2022/06/06 08:07:34;;;;;;;2.55;2.30;;;;;;;23.82;61.73;96044.19;5097121;28;20047;-60
2022/06/06 08:10:08;;;;;;;6.20;2.25;;;;;;;24.07;62.52;96034.53;5092447;28;20391;-60
2022/06/06 08:12:55;;;;;;;4.45;2.10;;;;;;;24.21;62.59;96036.06;5096956;28;20452;-61
2022/06/06 08:15:20;;;;;;;2.38;2.15;;;;;;;24.27;60.80;96037.88;5095476;28;20027;-61
2022/06/06 08:18:10;;;;;;;4.82;2.40;;;;;;;24.22;59.93;96032.34;5103576;28;20032;-61
2022/06/06 08:20:47;;;;;;;2.13;2.00;;;;;;;24.27;59.04;96031.66;5095106;28;20116;-60
2022/06/06 08:23:14;;;;;;;3.42;2.33;;;;;;;24.60;59.40;96019.75;5095976;28;20032;-61
2022/06/06 08:25:43;;;;;;;1.90;1.80;;;;;;;24.72;59.16;96025.22;5098620;28;20036;-61
2022/06/06 08:28:09;;;;;;;4.60;1.92;;;;;;;24.86;60.62;96026.75;5097515;28;20027;-59
2022/06/06 08:30:37;;;;;;;2.08;1.88;;;;;;;25.32;57.59;96019.16;5091052;28;20027;-60
2022/06/06 08:33:03;;;;;;;1.95;1.85;;;;;;;25.93;55.02;96018.28;5098381;28;20103;-60
2022/06/06 08:35:58;;;;;;;2.20;1.88;;;;;;;25.83;54.87;96018.84;5100285;28;20359;-59
2022/06/06 08:38:43;;;;;;;3.13;2.17;;;;;;;25.45;54.47;96020.03;5092498;28;20169;-60
2022/06/06 08:41:46;;;;;;;2.67;1.95;;;;;;;25.57;55.44;96002.03;5101496;28;20039;-59
2022/06/06 08:44:14;;;;;;;2.83;2.10;;;;;;;25.70;54.22;96002.91;5100140;28;20035;-60
2022/06/06 08:47:07;;;;;;;6.22;2.20;;;;;;;26.04;53.94;96003.19;5099067;28;20035;-60
2022/06/06 08:53:32;;;;;;;2.05;1.90;;;;;;;26.07;51.99;96001.91;5104136;28;20550;-59
2022/06/06 08:56:18;;;;;;;2.60;1.63;;;;;;;26.11;49.82;96005.78;5096909;28;20052;-61
2022/06/06 08:59:01;;;;;;;6.13;2.30;;;;;;;25.79;53.46;96004.19;5097378;28;20036;-60
2022/06/06 09:02:05;;;;;;;1.40;1.30;;;;;;;26.01;48.98;96004.50;5101126;28;20080;-60
2022/06/06 09:04:30;;;;;;;1.38;1.38;;;;;;;27.00;47.25;95998.59;5104855;28;20054;-60
2022/06/06 09:07:26;;;;;;;1.70;1.60;;;;;;;26.57;46.15;96003.34;5099626;28;20482;-60
2022/06/06 09:10:09;;;;;;;;;;;;;;;26.00;45.67;95999.31;5101594;28;20289;-60
2022/06/06 09:13:13;;;;;;;1.63;1.15;;;;;;;26.40;44.60;96005.94;5105848;28;20290;-59
2022/06/06 09:16:00;;;;;;;1.08;1.08;;;;;;;26.71;44.63;95998.53;5099068;28;20077;-67
2022/06/06 09:18:29;;;;;;;1.95;1.10;;;;;;;26.52;45.58;95997.81;5098911;28;20035;-65
2022/06/06 09:21:15;;;;;;;1.65;1.55;;;;;;;27.00;45.70;95993.19;5100427;28;20120;-63
2022/06/06 09:24:18;;;;;;;3.40;1.63;;;;;;;27.39;41.94;95993.41;5107118;28;20051;-67
2022/06/06 09:27:04;;;;;;;1.40;1.30;;;;;;;27.27;42.93;95982.66;5100435;28;20028;-64
2022/06/06 09:29:57;;;;;;;5.75;1.55;;;;;;;27.65;43.95;95985.78;5099706;28;20075;-64
2022/06/06 09:32:57;;;;;;;1.63;1.40;;;;;;;28.01;42.27;95986.38;5102649;28;20434;-63
2022/06/06 09:35:32;;;;;;;3.72;1.38;;;;;;;27.53;42.84;95990.44;5103520;28;20486;-64
2022/06/06 09:38:09;;;;;;;3.13;1.33;;;;;;;27.50;45.34;95985.47;5101544;28;20416;-63
2022/06/06 09:40:38;;;;;;;2.22;1.58;;;;;;;28.15;41.92;95980.63;5096679;28;20036;-63
2022/06/06 09:43:15;;;;;;;1.45;1.35;;;;;;;27.89;40.96;95982.94;5101840;28;20487;-62
2022/06/06 09:46:09;;;;;;;1.73;1.45;;;;;;;27.67;41.69;95980.94;5094913;28;20031;-62
2022/06/06 09:49:09;;;;;;;2.47;1.50;;;;;;;27.28;42.82;95972.66;5098296;28;20032;-62
2022/06/06 09:52:05;;;;;;;1.30;1.30;;;;;;;27.11;46.19;95972.59;5104273;28;20518;-62
2022/06/06 10:00:51;;;;;;;1.65;1.55;;;;;;;27.33;43.74;95964.66;5099631;27;20085;-62
2022/06/06 10:04:07;;;;;;;3.43;1.20;;;;;;;28.09;45.24;95970.78;5097828;27;20491;-63
2022/06/06 10:06:50;;;;;;;5.30;1.20;;;;;;;27.98;44.05;95975.22;5097232;27;20310;-62
2022/06/06 10:09:58;;;;;;;1.73;1.45;;;;;;;28.30;42.33;95959.25;5096788;27;20399;-62
2022/06/06 10:12:39;;;;;;;1.95;1.63;;;;;;;27.84;42.75;95958.50;5076032;27;20032;-62
2022/06/06 10:15:14;;;;;;;6.68;2.05;;;;;;;27.40;43.29;95959.06;5097617;27;20040;-62
2022/06/06 10:17:58;;;;;;;4.88;1.67;;;;;;;26.98;44.77;95954.78;5098230;28;20019;-61
2022/06/06 10:20:23;;;;;;;1.48;1.23;;;;;;;27.46;42.88;95958.13;5103878;27;20449;-61
2022/06/06 10:23:23;;;;;;;2.75;1.67;;;;;;;26.85;46.29;95945.09;5099619;27;20050;-62
2022/06/06 10:26:22;;;;;;;4.18;1.55;;;;;;;27.95;42.62;95944.06;5095935;27;20038;-62
2022/06/06 10:30:10;;;;;;;1.42;1.23;;;;;;;27.19;43.53;95944.38;5096499;27;20035;-61
2022/06/06 10:32:45;;;;;;;1.20;1.20;;;;;;;27.32;42.36;95946.81;5101008;27;20040;-62
2022/06/06 10:35:36;;;;;;;1.58;1.48;;;;;;;28.01;41.65;95945.81;5106306;27;20037;-65
2022/06/06 10:38:15;;;;;;;2.70;1.30;;;;;;;27.98;42.29;95940.06;5105220;27;20032;-63
2022/06/06 10:41:04;;;;;;;2.20;1.50;;;;;;;27.70;43.15;95930.97;5099386;27;20491;-63
2022/06/06 10:43:29;;;;;;;1.42;1.33;;;;;;;27.65;42.44;95926.28;5103391;27;20034;-64
2022/06/06 10:46:12;;;;;;;1.93;1.50;;;;;;;27.64;43.19;95927.34;5099785;27;20561;-62
2022/06/06 10:48:50;;;;;;;1.95;1.75;;;;;;;28.19;41.64;95926.88;5099229;27;20046;-63
2022/06/06 10:51:40;;;;;;;2.03;1.60;;;;;;;28.38;39.65;95924.69;5098648;27;20049;-64
2022/06/06 10:54:31;;;;;;;3.65;1.40;;;;;;;28.69;40.25;95922.38;5094612;27;20552;-63
2022/06/06 10:57:09;;;;;;;1.48;1.38;;;;;;;28.19;40.99;95922.28;5098543;27;20043;-64
2022/06/06 11:00:03;;;;;;;3.75;1.40;;;;;;;28.89;40.32;95919.13;5097382;27;20048;-63
2022/06/06 11:03:02;;;;;;;4.00;1.60;;;;;;;29.48;36.85;95914.03;5062868;27;20047;-61
2022/06/06 11:05:46;;;;;;;1.48;1.38;;;;;;;29.29;38.03;95912.50;5103971;27;20043;-62
2022/06/06 11:08:26;;;;;;;4.90;1.48;;;;;;;29.34;37.67;95911.75;5100868;27;20028;-62
2022/06/06 11:11:15;;;;;;;1.60;1.20;;;;;;;29.30;37.03;95907.91;5100118;27;20035;-62
2022/06/06 11:13:59;;;;;;;2.83;1.40;;;;;;;29.31;37.20;95907.63;5086662;27;20069;-62
2022/06/06 11:17:02;;;;;;;1.70;1.60;;;;;;;28.75;39.67;95902.41;5099405;27;20028;-64
2022/06/06 11:19:33;;;;;;;5.05;1.25;;;;;;;28.80;38.92;95905.19;5100201;27;20035;-61
2022/06/06 11:22:20;;;;;;;2.17;1.38;;;;;;;29.45;37.52;95894.50;5096542;27;20065;-61
2022/06/06 11:25:00;;;;;;;2.78;1.20;;;;;;;29.34;36.18;95900.06;5102074;27;20043;-62
2022/06/06 11:27:53;;;;;;;1.30;1.20;;;;;;;28.73;37.23;95905.34;5095951;27;20042;-63
2022/06/06 11:30:39;;;;;;;1.58;1.38;;;;;;;28.99;37.15;95902.16;5091172;27;20031;-62
2022/06/06 11:33:17;;;;;;;1.40;1.30;;;;;;;28.47;38.29;95901.53;5093452;28;20034;-62
2022/06/06 11:36:17;;;;;;;2.85;1.50;;;;;;;28.82;37.42;95905.75;5090916;28;20089;-61
2022/06/06 11:38:43;;;;;;;5.47;1.33;;;;;;;29.28;36.81;95897.31;5023254;28;20045;-62
2022/06/06 11:41:33;;;;;;;1.50;1.40;;;;;;;29.04;35.74;95904.13;5080148;28;20120;-62
2022/06/06 11:44:22;;;;;;;3.22;1.30;;;;;;;28.44;38.21;95897.44;5094714;27;20300;-62
2022/06/06 11:47:09;;;;;;;1.75;1.30;;;;;;;28.98;35.56;95893.22;5075003;28;20434;-62
2022/06/06 11:50:03;;;;;;;1.75;1.40;;;;;;;29.26;33.77;95876.94;5093802;27;20086;-62
2022/06/06 11:52:37;;;;;;;1.20;1.20;;;;;;;28.96;34.34;95881.00;5096215;27;20128;-62
2022/06/06 11:55:24;;;;;;;1.25;1.20;;;;;;;29.06;34.07;95874.88;5090763;27;20107;-62
2022/06/06 11:58:13;;;;;;;1.17;1.17;;;;;;;28.26;36.15;95873.38;5093306;27;20635;-62
2022/06/06 12:01:12;;;;;;;1.60;1.08;;;;;;;28.29;34.10;95876.41;5062604;28;20579;-60
2022/06/06 12:04:01;;;;;;;1.40;1.30;;;;;;;28.06;35.50;95869.28;5093336;27;20020;-61
2022/06/06 12:06:42;;;;;;;3.20;1.30;;;;;;;28.78;34.01;95869.41;5094298;27;20127;-60
2022/06/06 12:09:23;;;;;;;1.05;1.00;;;;;;;28.48;34.30;95859.84;5096169;27;20063;-62
2022/06/06 12:12:07;;;;;;;1.23;1.15;;;;;;;28.82;33.76;95867.03;5092299;27;20024;-60
2022/06/06 12:14:48;;;;;;;1.30;1.15;;;;;;;28.70;34.45;95862.53;5096033;27;20039;-61
2022/06/06 12:17:39;;;;;;;3.83;1.50;;;;;;;28.72;34.70;95854.16;5096190;27;20023;-61
2022/06/06 12:20:26;;;;;;;1.95;1.05;;;;;;;28.55;34.42;95852.34;5095064;28;20027;-62
2022/06/06 12:22:54;;;;;;;1.20;1.20;;;;;;;29.05;33.21;95846.94;5096303;27;20422;-61
2022/06/06 12:25:29;;;;;;;1.70;1.27;;;;;;;29.23;33.57;95845.75;5097700;27;20024;-62
2022/06/06 12:28:15;;;;;;;2.05;1.23;;;;;;;29.29;34.10;95841.19;5098560;27;20032;-62
2022/06/06 12:30:56;;;;;;;2.33;1.58;;;;;;;29.27;33.46;95838.75;5097620;28;20092;-62
2022/06/06 12:33:40;;;;;;;2.10;1.58;;;;;;;28.95;36.25;95836.00;5097711;27;20028;-62
2022/06/06 12:36:21;;;;;;;1.45;1.17;;;;;;;29.28;34.10;95837.66;5095442;27;20028;-61
2022/06/06 12:39:42;;;;;;;1.13;1.13;;;;;;;28.86;33.63;95839.19;5092133;27;20115;-62
2022/06/06 12:42:35;;;;;;;1.60;1.45;;;;;;;28.46;34.04;95832.22;5024742;28;20094;-62
2022/06/06 12:45:19;;;;;;;1.70;1.27;;;;;;;28.53;36.39;95827.41;5094625;28;20569;-62